createdAt,value
2022-10-11T00:02:36.324Z,55.25
2022-10-11T00:05:38.177Z,57.41
2022-10-11T00:08:40.084Z,56.03
2022-10-11T00:11:42.015Z,57.75
2022-10-11T00:14:43.782Z,56.25
2022-10-11T00:17:45.708Z,55.58
2022-10-11T00:20:47.584Z,55.49
2022-10-11T00:23:49.659Z,55.35
2022-10-11T00:26:51.452Z,56.02
2022-10-11T00:29:53.283Z,57.19
2022-10-11T00:32:55.132Z,56.98
2022-10-11T00:35:58.890Z,56.97
2022-10-11T00:39:00.870Z,58.61
2022-10-11T00:42:02.825Z,57.97
2022-10-11T00:45:23.248Z,55.06
2022-10-11T00:48:27.690Z,55.37
2022-10-11T00:51:29.400Z,56.71
2022-10-11T00:54:31.698Z,59.10
2022-10-11T00:57:34.454Z,58.31
2022-10-11T01:00:36.318Z,55.16
2022-10-11T01:03:38.188Z,55.64
2022-10-11T01:06:40.074Z,54.94
2022-10-11T01:09:41.915Z,54.68
2022-10-11T01:12:50.812Z,54.26
2022-10-11T01:15:58.641Z,54.54
2022-10-11T01:19:03.445Z,52.86
2022-10-11T01:22:20.516Z,52.42
2022-10-11T01:25:32.062Z,57.43
2022-10-11T01:28:41.581Z,58.36
2022-10-11T01:31:52.074Z,56.91
2022-10-11T01:35:03.931Z,54.53
2022-10-11T01:38:05.767Z,56.57
2022-10-11T01:41:09.089Z,58.17
2022-10-11T01:44:10.922Z,57.85
2022-10-11T01:47:12.857Z,58.08
2022-10-11T01:50:33.159Z,61.39
2022-10-11T01:53:40.598Z,62.11
2022-10-11T01:57:01.323Z,61.69
2022-10-11T02:00:15.591Z,57.75
2022-10-11T02:03:17.356Z,61.43
2022-10-11T02:06:36.455Z,63.69
2022-10-11T02:09:41.895Z,61.67
2022-10-11T02:12:45.012Z,57.60
2022-10-11T02:15:46.974Z,57.40
2022-10-11T02:18:50.475Z,60.21
2022-10-11T02:21:53.450Z,59.18
2022-10-11T02:24:57.007Z,58.52
2022-10-11T02:27:59.549Z,61.04
2022-10-11T02:31:01.479Z,62.63
2022-10-11T02:34:11.991Z,59.93
2022-10-11T02:37:16.776Z,58.79
2022-10-11T02:40:21.234Z,59.85
2022-10-11T02:43:25.351Z,58.76
2022-10-11T02:46:27.161Z,61.54
2022-10-11T02:49:29.457Z,63.38
2022-10-11T02:52:31.731Z,60.00
2022-10-11T02:55:33.576Z,63.00
2022-10-11T02:58:35.357Z,65.70
2022-10-11T03:01:37.249Z,63.00
2022-10-11T03:04:39.076Z,61.17
2022-10-11T03:07:40.897Z,65.88
2022-10-11T03:10:42.963Z,63.48
2022-10-11T03:13:44.761Z,62.55
2022-10-11T03:16:46.588Z,61.76
2022-10-11T03:19:48.441Z,59.65
2022-10-11T03:22:50.367Z,60.86
2022-10-11T03:25:52.230Z,61.30
2022-10-11T03:28:54.172Z,64.26
2022-10-11T03:31:56.104Z,61.79
2022-10-11T03:34:58.044Z,61.05
2022-10-11T03:37:59.855Z,63.31
2022-10-11T03:41:01.676Z,61.61
2022-10-11T03:44:03.738Z,61.07
2022-10-11T03:47:06.058Z,64.39
2022-10-11T03:50:08.254Z,65.44
2022-10-11T03:53:10.154Z,65.51
2022-10-11T03:56:12.301Z,63.08
2022-10-11T03:59:14.206Z,64.15
2022-10-11T04:02:16.121Z,60.93
2022-10-11T04:05:18.176Z,60.85
2022-10-11T04:08:20.022Z,64.78
2022-10-11T04:11:21.829Z,63.67
2022-10-11T04:14:23.619Z,63.98
2022-10-11T04:17:25.470Z,62.14
2022-10-11T04:20:27.311Z,62.42
2022-10-11T04:23:30.422Z,61.28
2022-10-11T04:26:32.255Z,60.85
2022-10-11T04:29:34.186Z,63.89
2022-10-11T04:32:36.028Z,62.99
2022-10-11T04:35:37.899Z,62.35
2022-10-11T04:38:39.724Z,63.28
2022-10-11T04:41:41.579Z,60.93
2022-10-11T04:44:43.394Z,59.24
2022-10-11T04:47:45.305Z,60.88
2022-10-11T04:50:47.157Z,62.45
2022-10-11T04:53:49.337Z,62.87
2022-10-11T04:56:51.154Z,60.81
2022-10-11T04:59:52.989Z,62.57
2022-10-11T05:02:55.221Z,63.15
2022-10-11T05:05:57.169Z,64.28
2022-10-11T05:08:59.021Z,59.64
2022-10-11T05:12:00.901Z,63.69
2022-10-11T05:15:02.859Z,61.79
2022-10-11T05:18:04.778Z,62.06
2022-10-11T05:21:07.835Z,63.13
2022-10-11T05:24:09.695Z,63.01
2022-10-11T05:27:11.568Z,61.64
2022-10-11T05:30:13.492Z,62.30
2022-10-11T05:33:15.306Z,61.05
2022-10-11T05:36:17.596Z,59.34
2022-10-11T05:39:19.426Z,59.28
2022-10-11T05:42:21.280Z,55.57
2022-10-11T05:45:23.129Z,55.95
2022-10-11T05:48:37.479Z,55.51
2022-10-11T05:52:11.425Z,55.33
2022-10-11T05:55:16.663Z,56.91
2022-10-11T06:02:03.667Z,52.17
2022-10-11T06:05:05.824Z,52.73
2022-10-11T06:08:08.722Z,50.82
2022-10-11T06:11:14.675Z,51.44
2022-10-11T06:14:16.553Z,49.82
2022-10-11T06:17:18.445Z,47.03
2022-10-11T06:20:20.468Z,49.13
2022-10-11T06:23:22.600Z,49.91
2022-10-11T06:26:24.502Z,48.06
2022-10-11T06:29:26.454Z,46.70
2022-10-11T06:32:28.418Z,45.56
2022-10-11T06:35:30.368Z,45.28
2022-10-11T06:38:32.241Z,45.78
2022-10-11T06:41:34.188Z,44.15
2022-10-11T06:44:36.175Z,43.23
2022-10-11T06:47:38.008Z,42.29
2022-10-11T06:50:58.546Z,42.56
2022-10-11T06:54:02.162Z,41.93
2022-10-11T06:57:04.000Z,40.22
2022-10-11T07:00:12.480Z,39.93
2022-10-11T07:03:14.708Z,42.03
2022-10-11T07:06:17.791Z,38.47
2022-10-11T07:09:19.635Z,40.67
2022-10-11T07:12:21.727Z,40.98
2022-10-11T07:15:26.882Z,40.56
2022-10-11T07:18:29.135Z,40.70
2022-10-11T07:21:31.964Z,40.68
2022-10-11T07:24:33.794Z,38.18
2022-10-11T07:27:35.627Z,38.13
2022-10-11T07:30:41.230Z,42.29
2022-10-11T07:33:43.363Z,42.43
2022-10-11T07:36:45.270Z,43.86
2022-10-11T07:39:48.848Z,41.80
2022-10-11T07:42:51.527Z,43.32
2022-10-11T07:45:57.000Z,40.59
2022-10-11T07:48:59.121Z,44.38
2022-10-11T07:52:00.969Z,44.55
2022-10-11T07:55:02.886Z,45.60
2022-10-11T07:58:07.314Z,44.44
2022-10-11T08:01:10.231Z,45.07
2022-10-11T08:04:12.176Z,44.04
2022-10-11T08:07:14.078Z,46.41
2022-10-11T08:10:16.118Z,48.69
2022-10-11T08:13:18.195Z,46.63
2022-10-11T08:16:20.719Z,44.20
2022-10-11T08:19:23.879Z,48.56
2022-10-11T08:22:27.820Z,48.78
2022-10-11T08:25:29.911Z,46.87
2022-10-11T08:28:31.967Z,44.87
2022-10-11T08:31:34.263Z,47.38
2022-10-11T08:34:36.236Z,44.14
2022-10-11T08:37:38.223Z,47.44
2022-10-11T08:40:52.522Z,45.38
2022-10-11T08:44:21.016Z,46.87
2022-10-11T08:47:43.308Z,48.62
2022-10-11T08:50:46.968Z,48.02
2022-10-11T08:53:54.282Z,49.33
2022-10-11T08:56:56.308Z,48.54
2022-10-11T09:00:05.139Z,46.33
2022-10-11T09:03:24.990Z,47.20
2022-10-11T09:06:36.001Z,46.26
2022-10-11T09:09:48.221Z,44.89
2022-10-11T09:13:00.171Z,46.17
2022-10-11T09:16:09.494Z,45.45
2022-10-11T09:19:20.579Z,43.91
2022-10-11T09:22:24.745Z,45.92
2022-10-11T09:26:04.541Z,45.31
2022-10-11T09:29:11.843Z,46.49
2022-10-11T09:32:21.116Z,44.48
2022-10-11T09:35:26.685Z,43.78
2022-10-11T09:38:31.887Z,46.26
2022-10-11T09:41:38.922Z,47.63
2022-10-11T09:44:41.828Z,46.12
2022-10-11T09:47:43.865Z,47.99
2022-10-11T09:50:45.882Z,44.83
2022-10-11T09:53:52.010Z,41.21
2022-10-11T09:56:54.441Z,36.98
2022-10-11T10:00:00.118Z,33.10
2022-10-11T10:03:02.961Z,33.70
2022-10-11T10:06:10.028Z,36.77
2022-10-11T10:09:28.683Z,34.36
2022-10-11T10:12:30.583Z,34.57
2022-10-11T10:15:36.238Z,33.42
2022-10-11T10:18:48.531Z,29.59
2022-10-11T10:21:51.900Z,33.29
2022-10-11T10:24:54.140Z,33.30
2022-10-11T10:28:00.562Z,30.96
2022-10-11T10:31:02.378Z,36.63
2022-10-11T10:34:15.290Z,37.01
2022-10-11T10:37:17.138Z,35.09
2022-10-11T10:40:21.100Z,38.80
2022-10-11T10:43:24.308Z,40.10
2022-10-11T10:46:35.673Z,38.95
2022-10-11T10:49:59.834Z,37.23
2022-10-11T10:53:20.554Z,38.25
2022-10-11T10:56:31.851Z,39.95
2022-10-11T10:59:43.214Z,38.73
2022-10-11T11:03:05.293Z,38.94
2022-10-11T11:06:12.568Z,39.67
2022-10-11T11:09:17.359Z,45.12
2022-10-11T11:12:34.822Z,45.12
2022-10-11T11:15:41.202Z,43.30
2022-10-11T11:18:46.354Z,41.32
2022-10-11T11:21:50.207Z,39.04
2022-10-11T11:24:57.045Z,39.85
2022-10-11T11:28:11.753Z,43.09
2022-10-11T11:31:13.740Z,41.49
2022-10-11T11:34:15.554Z,42.93
2022-10-11T11:37:36.819Z,38.96
2022-10-11T11:40:43.097Z,41.99
2022-10-11T11:43:52.045Z,41.62
2022-10-11T11:46:54.848Z,44.12
2022-10-11T11:49:59.660Z,40.08
2022-10-11T11:53:05.184Z,41.51
2022-10-11T11:56:10.258Z,40.33
2022-10-11T11:59:21.452Z,39.61
2022-10-11T12:02:39.744Z,41.77
2022-10-11T12:05:43.748Z,41.43
2022-10-11T12:08:57.055Z,43.59
2022-10-11T12:12:00.318Z,42.82
2022-10-11T12:15:05.046Z,42.81
2022-10-11T12:18:13.446Z,43.34
2022-10-11T12:21:17.713Z,43.25
2022-10-11T12:24:19.508Z,43.84
2022-10-11T12:28:00.069Z,42.59
2022-10-11T12:31:05.985Z,43.15
2022-10-11T12:34:08.229Z,43.92
2022-10-11T12:37:19.824Z,44.60
2022-10-11T12:40:36.401Z,45.42
2022-10-11T12:43:50.552Z,42.79
2022-10-11T12:46:55.634Z,45.95
2022-10-11T12:50:02.973Z,47.24
2022-10-11T12:53:25.242Z,46.34
2022-10-11T12:56:45.625Z,45.01
2022-10-11T12:59:47.964Z,45.51
2022-10-11T13:02:50.143Z,39.53
2022-10-11T13:05:56.159Z,37.20
2022-10-11T13:09:02.993Z,38.31
2022-10-11T13:12:08.243Z,40.71
2022-10-11T13:15:15.909Z,39.18
2022-10-11T13:18:19.259Z,36.65
2022-10-11T13:21:24.317Z,32.33
2022-10-11T13:24:27.794Z,32.77
2022-10-11T13:27:29.748Z,29.43
2022-10-11T13:30:32.981Z,27.50
2022-10-11T13:33:36.286Z,28.17
2022-10-11T13:36:38.165Z,26.89
2022-10-11T13:39:41.590Z,25.62
2022-10-11T13:42:43.865Z,26.45
2022-10-11T13:45:45.730Z,27.42
2022-10-11T13:48:56.618Z,25.10
2022-10-11T13:51:59.611Z,27.84
2022-10-11T13:55:01.586Z,31.39
2022-10-11T13:58:09.119Z,34.12
2022-10-11T14:01:24.900Z,34.72
2022-10-11T14:04:29.701Z,37.17
2022-10-11T14:07:33.867Z,39.90
2022-10-11T14:10:35.782Z,37.65
2022-10-11T14:13:41.741Z,40.28
2022-10-11T14:16:48.079Z,42.26
2022-10-11T14:20:08.730Z,43.96
2022-10-11T14:23:13.405Z,45.65
2022-10-11T14:26:18.786Z,44.65
2022-10-11T14:29:22.990Z,43.76
2022-10-11T14:32:29.350Z,41.97
2022-10-11T14:35:31.950Z,44.22
2022-10-11T14:38:33.833Z,42.41
2022-10-11T14:41:35.679Z,44.17
2022-10-11T14:44:37.654Z,43.57
2022-10-11T14:47:42.968Z,41.41
2022-10-11T14:50:49.731Z,43.26
2022-10-11T14:53:52.229Z,42.95
2022-10-11T14:56:55.290Z,45.30
2022-10-11T14:59:57.307Z,45.62
2022-10-11T15:02:59.120Z,45.97
2022-10-11T15:06:01.713Z,45.34
2022-10-11T15:09:04.861Z,44.65
2022-10-11T15:12:06.859Z,44.38
2022-10-11T15:15:11.453Z,43.79
2022-10-11T15:18:17.605Z,42.07
2022-10-11T15:21:23.010Z,43.59
2022-10-11T15:24:24.899Z,42.91
2022-10-11T15:27:28.946Z,42.43
2022-10-11T15:30:31.637Z,45.02
2022-10-11T15:33:33.490Z,44.44
2022-10-11T15:36:35.293Z,45.17
2022-10-11T15:39:37.217Z,44.70
2022-10-11T15:42:39.428Z,43.71
2022-10-11T15:45:41.528Z,43.80
2022-10-11T15:48:43.862Z,43.90
2022-10-11T15:51:45.963Z,43.50
2022-10-11T15:54:47.801Z,46.62
2022-10-11T15:57:49.570Z,45.80
2022-10-11T16:00:56.232Z,44.45
2022-10-11T16:03:58.144Z,44.27
2022-10-11T16:06:59.986Z,44.78
2022-10-11T16:10:01.934Z,45.69
2022-10-11T16:13:03.967Z,43.30
2022-10-11T16:16:06.457Z,45.51
2022-10-11T16:19:08.582Z,45.80
2022-10-11T16:22:11.080Z,45.90
2022-10-11T16:25:12.885Z,45.70
2022-10-11T16:28:14.835Z,47.15
2022-10-11T16:31:18.368Z,48.34
2022-10-11T16:34:20.283Z,47.75
2022-10-11T16:37:22.125Z,47.96
2022-10-11T16:40:26.337Z,47.66
2022-10-11T16:43:28.172Z,47.50
2022-10-11T16:46:29.992Z,48.29
2022-10-11T16:49:32.097Z,47.73
2022-10-11T16:52:34.138Z,48.38
2022-10-11T16:55:36.022Z,48.41
2022-10-11T16:58:37.944Z,47.39
2022-10-11T17:01:40.016Z,47.52
2022-10-11T17:04:42.039Z,46.62
2022-10-11T17:07:43.848Z,47.24
2022-10-11T17:10:47.726Z,48.10
2022-10-11T17:13:50.465Z,49.83
2022-10-11T17:16:52.294Z,50.10
2022-10-11T17:19:54.328Z,49.36
2022-10-11T17:22:56.174Z,51.13
2022-10-11T17:25:57.964Z,51.39
2022-10-11T17:29:00.539Z,51.33
2022-10-11T17:32:02.595Z,51.87
2022-10-11T17:35:05.061Z,53.87
2022-10-11T17:38:06.891Z,51.87
2022-10-11T17:41:09.165Z,50.67
2022-10-11T17:44:11.671Z,51.54
2022-10-11T17:47:14.384Z,50.55
2022-10-11T17:50:16.233Z,49.97
2022-10-11T17:53:18.143Z,50.56
2022-10-11T17:56:26.704Z,53.36
2022-10-11T17:59:31.984Z,51.90
2022-10-11T18:02:33.840Z,51.28
2022-10-11T18:05:41.933Z,52.45
2022-10-11T18:08:43.795Z,52.39
2022-10-11T18:11:46.169Z,52.22
2022-10-11T18:14:48.007Z,51.78
2022-10-11T18:17:49.803Z,52.48
2022-10-11T18:20:51.649Z,52.14
2022-10-11T18:23:53.465Z,51.50
2022-10-11T18:26:55.277Z,51.60
2022-10-11T18:29:57.550Z,53.83
2022-10-11T18:32:59.366Z,55.51
2022-10-11T18:36:01.397Z,55.09
2022-10-11T18:39:04.390Z,54.01
2022-10-11T18:42:06.320Z,53.55
2022-10-11T18:45:08.545Z,53.41
2022-10-11T18:48:10.597Z,53.10
2022-10-11T18:51:14.884Z,53.53
2022-10-11T18:54:20.144Z,53.65
2022-10-11T18:57:24.298Z,55.14
2022-10-11T19:00:41.760Z,54.92
2022-10-11T19:03:44.317Z,53.60
2022-10-11T19:06:47.837Z,54.62
2022-10-11T19:09:49.759Z,55.82
2022-10-11T19:12:51.609Z,55.17
2022-10-11T19:15:53.445Z,54.43
2022-10-11T19:18:55.429Z,54.49
2022-10-11T19:21:57.267Z,54.78
2022-10-11T19:24:59.198Z,54.15
2022-10-11T19:28:01.049Z,55.01
2022-10-11T19:31:06.929Z,56.24
2022-10-11T19:34:09.118Z,57.60
2022-10-11T19:37:13.320Z,57.79
2022-10-11T19:40:15.218Z,58.16
2022-10-11T19:43:17.078Z,57.30
2022-10-11T19:46:37.902Z,59.93
2022-10-11T19:49:42.390Z,60.16
2022-10-11T19:52:45.088Z,59.61
2022-10-11T19:55:46.976Z,57.70
2022-10-11T19:58:48.827Z,57.16
2022-10-11T20:01:53.087Z,56.35
2022-10-11T20:04:55.322Z,56.33
2022-10-11T20:07:57.215Z,60.73
2022-10-11T20:10:59.598Z,59.50
2022-10-11T20:14:01.437Z,57.56
2022-10-11T20:17:03.480Z,55.93
2022-10-11T20:20:05.506Z,56.34
2022-10-11T20:23:07.338Z,56.59
2022-10-11T20:26:13.023Z,57.04
2022-10-11T20:29:14.849Z,56.58
2022-10-11T20:32:16.675Z,56.73
2022-10-11T20:35:18.482Z,57.01
2022-10-11T20:38:20.282Z,55.54
2022-10-11T20:41:23.323Z,55.96
2022-10-11T20:44:25.168Z,56.65
2022-10-11T20:47:27.126Z,58.22
2022-10-11T20:50:28.938Z,58.67
2022-10-11T20:53:30.737Z,58.82
2022-10-11T20:56:33.686Z,59.28
2022-10-11T20:59:35.757Z,59.65
2022-10-11T21:02:38.544Z,56.89
2022-10-11T21:05:40.398Z,57.50
2022-10-11T21:08:42.206Z,55.96
2022-10-11T21:11:44.026Z,56.72
2022-10-11T21:14:45.833Z,59.40
2022-10-11T21:17:48.514Z,61.96
2022-10-11T21:20:50.366Z,62.31
2022-10-11T21:24:01.580Z,58.47
2022-10-11T21:27:03.393Z,58.76
2022-10-11T21:30:05.446Z,59.46
2022-10-11T21:33:07.252Z,59.25
2022-10-11T21:36:29.404Z,59.82
2022-10-11T21:39:31.610Z,58.60
2022-10-11T21:42:33.426Z,58.78
2022-10-11T21:45:36.631Z,57.91
2022-10-11T21:48:38.809Z,59.81
2022-10-11T21:51:40.619Z,60.31
2022-10-11T21:54:42.395Z,60.01
2022-10-11T21:57:44.204Z,62.91
2022-10-11T22:00:46.798Z,64.50
2022-10-11T22:03:48.754Z,63.08
2022-10-11T22:06:50.573Z,60.22
2022-10-11T22:09:52.354Z,58.92
2022-10-11T22:12:54.161Z,58.71
2022-10-11T22:15:58.701Z,59.32
2022-10-11T22:19:00.520Z,63.25
2022-10-11T22:22:02.437Z,61.60
2022-10-11T22:25:04.405Z,61.00
2022-10-11T22:28:08.390Z,60.90
2022-10-11T22:31:10.391Z,63.70
2022-10-11T22:34:12.170Z,62.78
2022-10-11T22:37:13.969Z,63.75
2022-10-11T22:40:16.117Z,62.40
2022-10-11T22:43:17.952Z,63.47
2022-10-11T22:46:19.763Z,61.61
2022-10-11T22:49:21.562Z,63.29
2022-10-11T22:52:23.344Z,62.71
2022-10-11T22:55:26.207Z,61.89
2022-10-11T22:58:28.084Z,62.76
2022-10-11T23:01:30.018Z,67.44
2022-10-11T23:04:31.793Z,62.93
2022-10-11T23:07:33.778Z,65.73
2022-10-11T23:10:39.622Z,64.21
2022-10-11T23:13:41.445Z,67.15
2022-10-11T23:16:43.251Z,65.50
2022-10-11T23:19:45.072Z,63.26
2022-10-11T23:22:46.907Z,63.28
2022-10-11T23:25:48.720Z,63.38
2022-10-11T23:28:53.078Z,63.93
2022-10-11T23:31:55.052Z,61.86
2022-10-11T23:34:56.870Z,61.72
2022-10-11T23:37:58.704Z,62.37
2022-10-11T23:41:00.530Z,62.25
2022-10-11T23:44:02.338Z,60.84
2022-10-11T23:47:04.172Z,62.22
2022-10-11T23:50:06.218Z,63.25
2022-10-11T23:53:08.082Z,62.11
2022-10-11T23:56:10.054Z,60.83
2022-10-11T23:59:11.856Z,63.10
